This is the latest recevied weather packets stored in our database for station/object WX7EM. If no packets are shown the sender has not sent any weather packets the latest 10 day(s).
| Time | Temp. | Humidity | Pressure | Rain* | Wind** | Luminosity | Snow |
|---|---|---|---|---|---|---|---|
| 1777498895 | 17.78° C | 52% | 1021.1 hPa | 0 mm | - | 88 W/m² | - |
| 1777498592 | 17.78° C | 51% | 1021.1 hPa | 0 mm | - | 270 W/m² | - |
| 1777498287 | 17.22° C | 53% | 1020.8 hPa | 0 mm | - | 162 W/m² | - |
| 1777497987 | 17.78° C | 51% | 1021 hPa | 0 mm | - | 151 W/m² | - |
| 1777497682 | 17.22° C | 52% | 1021.1 hPa | 0 mm | - | 742 W/m² | - |
| 1777497379 | 17.22° C | 51% | 1021.3 hPa | 0 mm | - | 474 W/m² | - |
| 1777497075 | 17.78° C | 52% | 1021.2 hPa | 0 mm | - | 792 W/m² | - |
| 1777496771 | 17.22° C | 53% | 1021.2 hPa | 0 mm | - | 801 W/m² | - |
| 1777496468 | 17.78° C | 52% | 1021 hPa | 0 mm | - | 809 W/m² | - |
| 1777496165 | 17.22° C | 54% | 1021.1 hPa | 0 mm | - | 815 W/m² | - |
| 1777495861 | 17.78° C | 53% | 1021.3 hPa | 0 mm | - | 822 W/m² | - |
| 1777495557 | 17.22° C | 53% | 1021.1 hPa | 0 mm | - | 824 W/m² | - |
| 1777495253 | 17.22° C | 54% | 1021.2 hPa | 0 mm | - | 832 W/m² | - |
| 1777494950 | 16.67° C | 55% | 1021.3 hPa | 0 mm | - | 836 W/m² | - |
| 1777494647 | 16.67° C | 55% | 1021.4 hPa | 0 mm | - | 842 W/m² | - |
| 1777494344 | 16.67° C | 56% | 1021.5 hPa | 0 mm | - | 837 W/m² | - |
| 1777494041 | 16.67° C | 57% | 1021.4 hPa | 0 mm | - | 848 W/m² | - |
| 1777493739 | 17.22° C | 54% | 1021.4 hPa | 0 mm | - | 846 W/m² | - |
| 1777493437 | 17.22° C | 56% | 1021.8 hPa | 0 mm | - | 847 W/m² | - |
| 1777493132 | 16.67° C | 56% | 1021.6 hPa | 0 mm | - | 849 W/m² | - |
| 1777492829 | 16.67° C | 56% | 1021.7 hPa | 0 mm | - | 848 W/m² | - |
| 1777492526 | 16.67° C | 56% | 1021.8 hPa | 0 mm | - | 846 W/m² | - |
| 1777492221 | 15.56° C | 57% | 1021.7 hPa | 0 mm | - | 853 W/m² | - |
| 1777491920 | 16.11° C | 56% | 1021.8 hPa | 0 mm | - | 844 W/m² | - |
| 1777491615 | 16.67° C | 55% | 1022 hPa | 0 mm | - | 842 W/m² | - |
* Rain latest hour (hover to see other rain measurements)
** Current wind speed in m/s (hover to see current wind gust speed)